Edgar County, IL

2:32 AM CDT on July 31, 2014 (GMT -0500)
Edgar County (KPRG) Elev 653 ft | 39.70 °N, 87.67 °W | Change Station

Current weather conditions updated 17 minutes ago

Clear
Clear
57 °F
Feels Like 57 °F
N
4
Wind Variable Wind from WSW

Today is forecast to be Warmer than yesterday.

Today
High -- | Low -- °F
--% Chance of Precip.
Yesterday
High -- | Low -- °F
Precip. -- in
5:48 AM 8:04 PM
Waxing Crescent, 16% visible
Pressure 30.07 in
Visibility 7.0 miles
Clouds Clear
Dew Point 56 °F
Humidity 97%
Rainfall 0.00 in
Snow Depth Not available.
UV 0 out of 12
Pollen 6.70 out of 12
Air Quality Not available.
Flu Activity Not available.
METAR KPRG 310715Z AUTO 24003KT 7SM CLR 14/14 A3007 RMK AO2 T01390135

More Conditions Fewer Conditions

Pressure 30.07 in
Visibility 7.0 miles
Clouds Clear
Dew Point 56 °F
Humidity 97%
Rainfall 0.00 in
Snow Depth Not available.
UV 0 out of 12
Pollen 6.70 out of 12
Air Quality Not available.
Flu Activity Not available.
METAR KPRG 310715Z AUTO 24003KT 7SM CLR 14/14 A3007 RMK AO2 T01390135

More Conditions Fewer Conditions

10-Day Weather Forecast

Almanac

Astronomy

Jul. 31, 2014 Rise Set
Actual Time 5:48 AM CDT 8:04 PM CDT
Civil Twilight 5:18 AM CDT 8:34 PM CDT
Nautical Twilight 4:41 AM CDT 9:11 PM CDT
Astronomical Twilight 4:00 AM CDT 9:52 PM CDT
Moon 10:15 AM CDT 10:18 PM CDT
Length of Visible Light 15h 16m
Length of Day
14h 15m
Tomorrow will be 1m 58s shorter.
Waxing Crescent, 16% of the Moon is Illuminated
Today
Waxing Crescent
Aug 3
First Quarter
Aug 10
Full
Aug 17
Last Quarter
Aug 25
New

Today's Extremes

State Highs State Lows

Community

WunderPhotos

Upload Photos

1,739,258 photos uploaded!

Nearby

Snow Depth

Station Depth Elevation
No new snow has been reported.

Earthquake Activity

City Distance Mag. Time & Date
No recent earthquake activity has been reported nearby.
Minimum magnitude displayed is 2.5.

Coastal Water Temperatures

Place Temperature
No Stations Reporting

Nearby Weather Stations

Station Location Temp. Dew Point Humidity Wind Precip. Elev Updated Type
South Vermillion High School, Clinton, IN 60.2 °F 59 °F 96% SE  at  0.0 mph 0.00 in / hr 518 ft 3:23 AM EDT Normal
Marshall, IL 58.0 °F - 100% West  at  0.0 mph 0.00 in / hr 580 ft 2:28 AM CDT Normal
MesoWest I-70 @ IL-49 (or IL 1?) , Marshall, IL 63 °F 62 °F 95% North  at  2 mph 0.00 in / hr 609 ft 1:54 AM CDT MADIS
N0QIO Weather Station, Terre Haute, Terre Haute, IN 62.2 °F 61 °F 96% North  at  0.0 mph 0.00 in / hr 502 ft 3:30 AM EDT Normal
Marshall Golf Course, Marshall, IL 59.5 °F 59 °F 97% West  at  0.0 mph 0.00 in / hr 601 ft 2:32 AM CDT Rapid Fire
Sandcut/North Terre Haute, Terre Haute, IN 61.7 °F 55 °F 77% North  at  - 0.00 in / hr 580 ft 3:32 AM EDT Normal
Rockville, IN 61.0 °F 61 °F 99% WSW  at  0.0 mph 0.00 in / hr 702 ft 3:32 AM EDT Rapid Fire

Show More Stations Show Fewer Stations